createdAt,value
2018-06-05T00:01:27.118Z,17.89
2018-06-05T00:03:55.800Z,18.12
2018-06-05T00:06:24.493Z,18.23
2018-06-05T00:08:53.189Z,17.97
2018-06-05T00:11:21.867Z,17.83
2018-06-05T00:13:50.538Z,17.80
2018-06-05T00:16:19.238Z,17.72
2018-06-05T00:18:47.933Z,17.80
2018-06-05T00:21:16.610Z,17.83
2018-06-05T00:23:45.125Z,18.10
2018-06-05T00:26:13.830Z,18.24
2018-06-05T00:28:42.519Z,18.28
2018-06-05T00:31:11.185Z,18.16
2018-06-05T00:33:39.691Z,17.88
2018-06-05T00:36:08.378Z,17.62
2018-06-05T00:38:37.070Z,17.46
2018-06-05T00:41:05.778Z,17.93
2018-06-05T00:43:34.465Z,17.69
2018-06-05T00:46:03.148Z,17.65
2018-06-05T00:48:31.880Z,17.56
2018-06-05T00:51:01.393Z,17.49
2018-06-05T00:53:31.465Z,17.44
2018-06-05T00:56:00.144Z,17.41
2018-06-05T00:58:28.837Z,17.37
2018-06-05T01:00:57.518Z,17.35
2018-06-05T01:03:26.214Z,17.95
2018-06-05T01:05:54.885Z,18.37
2018-06-05T01:08:23.609Z,18.45
2018-06-05T01:10:52.124Z,18.29
2018-06-05T01:13:20.805Z,17.96
2018-06-05T01:15:49.518Z,17.64
2018-06-05T01:18:18.210Z,17.42
2018-06-05T01:20:46.905Z,17.25
2018-06-05T01:23:15.593Z,17.16
2018-06-05T01:25:44.332Z,17.08
2018-06-05T01:28:12.997Z,16.99
2018-06-05T01:30:41.490Z,16.98
2018-06-05T01:33:10.190Z,16.96
2018-06-05T01:35:38.862Z,17.13
2018-06-05T01:38:07.564Z,17.12
2018-06-05T01:40:36.271Z,17.05
2018-06-05T01:43:04.974Z,16.99
2018-06-05T01:45:33.645Z,16.93
2018-06-05T01:48:02.322Z,16.86
2018-06-05T01:50:31.092Z,16.94
2018-06-05T01:52:59.770Z,16.73
2018-06-05T01:55:28.476Z,16.67
2018-06-05T01:57:57.142Z,16.68
2018-06-05T02:00:25.807Z,16.64
2018-06-05T02:02:54.310Z,16.59
2018-06-05T02:05:23.001Z,16.51
2018-06-05T02:07:51.677Z,16.52
2018-06-05T02:10:20.348Z,16.60
2018-06-05T02:12:48.845Z,16.55
2018-06-05T02:15:17.531Z,16.70
2018-06-05T02:17:46.212Z,16.68
2018-06-05T02:20:14.885Z,16.66
2018-06-05T02:22:43.580Z,16.60
2018-06-05T02:25:12.296Z,16.52
2018-06-05T02:27:40.958Z,16.42
2018-06-05T02:30:09.671Z,16.20
2018-06-05T02:32:38.398Z,16.38
2018-06-05T02:35:06.878Z,16.30
2018-06-05T02:37:35.360Z,16.22
2018-06-05T02:40:04.120Z,16.17
2018-06-05T02:42:32.821Z,16.17
2018-06-05T02:45:01.536Z,16.14
2018-06-05T02:47:30.217Z,16.35
2018-06-05T02:49:58.898Z,16.20
2018-06-05T02:52:27.377Z,16.10
2018-06-05T02:54:55.872Z,16.02
2018-06-05T02:57:24.590Z,16.04
2018-06-05T02:59:53.288Z,15.97
2018-06-05T03:02:21.973Z,15.91
2018-06-05T03:04:50.645Z,15.87
2018-06-05T03:07:19.395Z,15.90
2018-06-05T03:09:48.063Z,15.93
2018-06-05T03:12:16.745Z,15.88
2018-06-05T03:14:45.440Z,15.98
2018-06-05T03:17:13.918Z,16.08
2018-06-05T03:19:42.572Z,16.01
2018-06-05T03:22:11.245Z,15.91
2018-06-05T03:24:39.940Z,15.84
2018-06-05T03:27:08.631Z,15.82
2018-06-05T03:29:37.297Z,15.72
2018-06-05T03:32:08.923Z,15.68
2018-06-05T03:34:37.605Z,15.62
2018-06-05T03:37:06.321Z,15.59
2018-06-05T03:39:35.013Z,15.57
2018-06-05T03:42:03.742Z,15.59
2018-06-05T03:44:32.275Z,15.62
2018-06-05T03:47:00.965Z,16.24
2018-06-05T03:49:34.150Z,16.62
2018-06-05T03:52:02.855Z,16.79
2018-06-05T03:54:31.530Z,16.81
2018-06-05T03:57:00.230Z,16.92
2018-06-05T03:59:28.903Z,16.99
2018-06-05T04:01:57.621Z,17.09
2018-06-05T04:04:26.397Z,17.11
2018-06-05T04:06:55.055Z,16.97
2018-06-05T04:09:24.226Z,16.70
2018-06-05T04:11:53.018Z,16.59
2018-06-05T04:14:21.682Z,16.60
2018-06-05T04:16:51.289Z,16.90
2018-06-05T04:19:20.090Z,17.04
2018-06-05T04:21:48.770Z,17.36
2018-06-05T04:24:17.451Z,17.50
2018-06-05T04:26:46.145Z,17.56
2018-06-05T04:29:14.838Z,18.15
2018-06-05T04:31:43.498Z,18.32
2018-06-05T04:34:12.003Z,18.33
2018-06-05T04:36:40.679Z,18.56
2018-06-05T04:39:09.398Z,18.86
2018-06-05T04:41:38.106Z,19.07
2018-06-05T04:44:06.798Z,19.34
2018-06-05T04:46:35.517Z,19.33
2018-06-05T04:49:04.212Z,19.53
2018-06-05T04:51:32.898Z,20.02
2018-06-05T04:54:01.571Z,20.13
2018-06-05T04:56:30.240Z,19.78
2018-06-05T04:58:58.717Z,19.52
2018-06-05T05:01:27.259Z,19.23
2018-06-05T05:03:55.945Z,19.10
2018-06-05T05:06:24.665Z,19.00
2018-06-05T05:08:53.927Z,18.89
2018-06-05T05:11:22.593Z,18.60
2018-06-05T05:13:51.283Z,18.45
2018-06-05T05:16:20.017Z,18.45
2018-06-05T05:18:48.750Z,18.50
2018-06-05T05:21:18.088Z,18.61
2018-06-05T05:23:46.770Z,18.82
2018-06-05T05:26:15.573Z,19.14
2018-06-05T05:28:44.266Z,19.76
2018-06-05T05:31:12.958Z,19.87
2018-06-05T05:33:41.473Z,20.00
2018-06-05T05:36:10.146Z,19.85
2018-06-05T05:38:39.008Z,19.84
2018-06-05T05:41:07.504Z,19.77
2018-06-05T05:43:36.210Z,19.82
2018-06-05T05:46:04.898Z,19.92
2018-06-05T05:48:33.591Z,19.86
2018-06-05T05:51:02.950Z,19.92
2018-06-05T05:53:31.433Z,19.99
2018-06-05T05:56:00.730Z,20.10
2018-06-05T05:58:29.230Z,20.06
2018-06-05T06:00:57.946Z,20.27
2018-06-05T06:03:26.638Z,20.19
2018-06-05T06:05:55.301Z,20.18
2018-06-05T06:08:23.978Z,20.11
2018-06-05T06:10:52.759Z,20.25
2018-06-05T06:13:21.596Z,20.28
2018-06-05T06:15:50.290Z,20.35
2018-06-05T06:18:18.966Z,20.44
2018-06-05T06:20:47.666Z,20.60
2018-06-05T06:23:16.350Z,20.65
2018-06-05T06:25:45.021Z,20.75
2018-06-05T06:28:13.733Z,20.87
2018-06-05T06:30:42.443Z,21.05
2018-06-05T06:33:11.093Z,21.25
2018-06-05T06:35:39.799Z,21.31
2018-06-05T06:38:08.313Z,21.55
2018-06-05T06:40:37.049Z,21.67
2018-06-05T06:43:05.748Z,21.79
2018-06-05T06:45:34.454Z,21.79
2018-06-05T06:48:03.156Z,21.81
2018-06-05T06:50:31.860Z,21.77
2018-06-05T06:53:00.558Z,21.73
2018-06-05T06:55:29.239Z,21.82
2018-06-05T06:57:57.924Z,21.68
2018-06-05T07:00:26.711Z,21.73
2018-06-05T07:02:56.992Z,21.67
2018-06-05T07:05:25.706Z,21.63
2018-06-05T07:07:54.446Z,21.57
2018-06-05T07:10:23.143Z,21.52
2018-06-05T07:12:51.839Z,21.65
2018-06-05T07:15:20.548Z,21.90
2018-06-05T07:17:49.255Z,21.98
2018-06-05T07:20:17.934Z,21.98
2018-06-05T07:22:46.633Z,21.89
2018-06-05T07:25:15.364Z,21.82
2018-06-05T07:27:44.079Z,21.83
2018-06-05T07:30:12.801Z,21.79
2018-06-05T07:32:41.316Z,21.69
2018-06-05T07:35:10.074Z,21.63
2018-06-05T07:37:38.812Z,21.78
2018-06-05T07:40:07.567Z,21.75
2018-06-05T07:42:36.290Z,21.95
2018-06-05T07:45:05.146Z,21.87
2018-06-05T07:47:33.653Z,21.98
2018-06-05T07:50:02.431Z,22.02
2018-06-05T07:52:31.103Z,22.00
2018-06-05T07:54:59.628Z,22.10
2018-06-05T07:57:28.349Z,22.15
2018-06-05T07:59:57.048Z,22.18
2018-06-05T08:02:25.799Z,22.34
2018-06-05T08:04:54.534Z,22.44
2018-06-05T08:07:23.267Z,22.58
2018-06-05T08:09:52.898Z,22.54
2018-06-05T08:12:21.614Z,22.67
2018-06-05T08:14:50.359Z,22.91
2018-06-05T08:17:19.073Z,23.09
2018-06-05T08:19:47.579Z,23.31
2018-06-05T08:22:16.284Z,23.70
2018-06-05T08:24:44.993Z,23.84
2018-06-05T08:27:13.706Z,24.04
2018-06-05T08:29:42.215Z,24.21
2018-06-05T08:32:16.294Z,24.86
2018-06-05T08:34:44.855Z,25.54
2018-06-05T08:37:13.586Z,26.06
2018-06-05T08:39:42.309Z,26.14
2018-06-05T08:42:11.026Z,26.70
2018-06-05T08:44:39.729Z,27.44
2018-06-05T08:47:08.254Z,27.74
2018-06-05T08:49:38.874Z,27.26
2018-06-05T08:52:07.606Z,27.07
2018-06-05T08:54:36.339Z,26.74
2018-06-05T08:57:05.101Z,27.07
2018-06-05T08:59:33.639Z,28.08
2018-06-05T09:02:02.399Z,28.26
2018-06-05T09:04:31.151Z,27.46
2018-06-05T09:07:00.743Z,27.19
2018-06-05T09:09:29.466Z,26.97
2018-06-05T09:11:58.184Z,26.81
2018-06-05T09:14:26.889Z,27.01
2018-06-05T09:16:55.641Z,27.08
2018-06-05T09:19:24.366Z,27.24
2018-06-05T09:21:53.152Z,27.94
2018-06-05T09:24:21.925Z,27.91
2018-06-05T09:26:50.719Z,27.85
2018-06-05T09:29:19.494Z,28.32
2018-06-05T09:31:48.260Z,28.51
2018-06-05T09:34:17.075Z,29.19
2018-06-05T09:36:45.836Z,28.90
2018-06-05T09:39:14.621Z,29.10
2018-06-05T09:41:43.340Z,29.59
2018-06-05T09:44:12.069Z,29.44
2018-06-05T09:46:40.848Z,29.76
2018-06-05T09:49:09.579Z,29.97
2018-06-05T09:51:38.334Z,29.88
2018-06-05T09:54:07.086Z,29.74
2018-06-05T09:56:35.818Z,29.95
2018-06-05T09:59:04.599Z,30.63
2018-06-05T10:01:33.326Z,30.68
2018-06-05T10:04:02.046Z,30.87
2018-06-05T10:06:30.796Z,30.93
2018-06-05T10:08:59.592Z,30.68
2018-06-05T10:11:28.330Z,30.23
2018-06-05T10:13:56.903Z,30.16
2018-06-05T10:16:25.439Z,30.88
2018-06-05T10:18:54.186Z,31.38
2018-06-05T10:21:22.946Z,31.30
2018-06-05T10:23:51.661Z,30.77
2018-06-05T10:26:20.382Z,30.87
2018-06-05T10:28:49.124Z,31.25
2018-06-05T10:31:17.646Z,30.72
2018-06-05T10:33:46.346Z,30.90
2018-06-05T10:36:15.101Z,31.31
2018-06-05T10:38:43.874Z,31.49
2018-06-05T10:41:12.596Z,31.91
2018-06-05T10:43:41.334Z,31.74
2018-06-05T10:46:09.846Z,31.36
2018-06-05T10:48:38.864Z,31.44
2018-06-05T10:51:07.652Z,31.26
2018-06-05T10:53:36.422Z,31.50
2018-06-05T10:56:05.220Z,32.01
2018-06-05T10:58:34.068Z,32.77
2018-06-05T11:01:02.872Z,32.09
2018-06-05T11:03:31.607Z,31.86
2018-06-05T11:06:00.416Z,32.74
2018-06-05T11:08:29.189Z,32.59
2018-06-05T11:10:58.006Z,32.45
2018-06-05T11:13:26.809Z,32.74
2018-06-05T11:15:55.604Z,32.52
2018-06-05T11:18:24.386Z,32.63
2018-06-05T11:20:52.881Z,33.00
2018-06-05T11:23:21.653Z,32.79
2018-06-05T11:25:50.487Z,33.06
2018-06-05T11:28:19.295Z,33.47
2018-06-05T11:30:48.153Z,33.05
2018-06-05T11:33:16.901Z,32.89
2018-06-05T11:35:45.668Z,32.97
2018-06-05T11:38:14.552Z,33.18
2018-06-05T11:40:43.317Z,33.25
2018-06-05T11:43:12.039Z,33.07
2018-06-05T11:45:40.571Z,33.36
2018-06-05T11:48:09.331Z,32.58
2018-06-05T11:50:38.092Z,32.65
2018-06-05T11:53:06.644Z,33.81
2018-06-05T11:55:35.394Z,34.09
2018-06-05T11:58:04.119Z,34.35
2018-06-05T12:00:32.816Z,33.98
2018-06-05T12:03:01.555Z,34.02
2018-06-05T12:05:30.311Z,34.90
2018-06-05T12:07:59.089Z,34.09
2018-06-05T12:10:27.833Z,33.81
2018-06-05T12:12:56.568Z,33.96
2018-06-05T12:15:25.376Z,33.73
2018-06-05T12:17:54.094Z,34.02
2018-06-05T12:20:22.806Z,33.71
2018-06-05T12:22:51.539Z,33.50
2018-06-05T12:25:20.261Z,34.07
2018-06-05T12:27:49.796Z,33.36
2018-06-05T12:30:18.527Z,33.01
2018-06-05T12:32:47.311Z,33.05
2018-06-05T12:35:16.145Z,33.19
2018-06-05T12:37:44.868Z,33.85
2018-06-05T12:40:13.614Z,33.81
2018-06-05T12:42:42.360Z,33.18
2018-06-05T12:45:11.081Z,33.36
2018-06-05T12:47:39.866Z,33.69
2018-06-05T12:50:08.606Z,33.85
2018-06-05T12:52:37.359Z,34.32
2018-06-05T12:55:05.919Z,34.38
2018-06-05T12:57:34.671Z,34.69
2018-06-05T13:00:03.842Z,34.43
2018-06-05T13:02:32.843Z,34.56
2018-06-05T13:05:01.366Z,35.15
2018-06-05T13:07:30.097Z,35.34
2018-06-05T13:09:58.915Z,35.08
2018-06-05T13:12:27.635Z,35.38
2018-06-05T13:14:57.429Z,35.48
2018-06-05T13:17:26.250Z,35.47
2018-06-05T13:19:55.014Z,35.32
2018-06-05T13:22:23.858Z,35.51
2018-06-05T13:24:52.438Z,35.26
2018-06-05T13:27:21.178Z,35.13
2018-06-05T13:29:49.968Z,33.84
2018-06-05T13:32:18.763Z,32.57
2018-06-05T13:34:47.526Z,31.47
2018-06-05T13:37:16.276Z,30.97
2018-06-05T13:39:44.778Z,30.77
2018-06-05T13:42:13.531Z,30.63
2018-06-05T13:44:42.254Z,30.32
2018-06-05T13:47:11.032Z,30.08
2018-06-05T13:49:39.759Z,29.85
2018-06-05T13:52:08.509Z,29.82
2018-06-05T13:54:37.201Z,30.03
2018-06-05T13:57:05.958Z,29.37
2018-06-05T13:59:34.687Z,28.93
2018-06-05T14:02:03.403Z,28.93
2018-06-05T14:04:32.174Z,28.65
2018-06-05T14:07:00.901Z,28.68
2018-06-05T14:09:29.475Z,29.05
2018-06-05T14:11:58.191Z,30.22
2018-06-05T14:14:26.906Z,31.20
2018-06-05T14:17:01.154Z,32.64
2018-06-05T14:19:30.235Z,33.40
2018-06-05T14:21:58.959Z,33.67
2018-06-05T14:24:27.468Z,34.27
2018-06-05T14:26:56.158Z,34.50
2018-06-05T14:29:24.867Z,34.14
2018-06-05T14:31:53.561Z,34.49
2018-06-05T14:34:22.278Z,34.01
2018-06-05T14:36:50.783Z,32.72
2018-06-05T14:39:19.501Z,33.14
2018-06-05T14:41:48.379Z,33.83
2018-06-05T14:44:17.828Z,33.79
2018-06-05T14:46:46.974Z,33.66
2018-06-05T14:49:16.466Z,33.85
2018-06-05T14:51:46.009Z,34.03
2018-06-05T14:54:15.563Z,34.39
2018-06-05T14:56:45.117Z,34.06
2018-06-05T14:59:14.881Z,34.54
2018-06-05T15:01:44.306Z,34.54
2018-06-05T15:04:13.014Z,34.62
2018-06-05T15:06:41.709Z,34.43
2018-06-05T15:09:10.426Z,34.35
2018-06-05T15:11:38.922Z,34.03
2018-06-05T15:14:07.614Z,33.93
2018-06-05T15:16:36.375Z,33.33
2018-06-05T15:19:05.342Z,32.26
2018-06-05T15:21:34.062Z,31.56
2018-06-05T15:24:02.589Z,31.68
2018-06-05T15:26:31.356Z,32.31
2018-06-05T15:29:00.112Z,32.82
2018-06-05T15:31:28.819Z,32.72
2018-06-05T15:33:57.574Z,31.95
2018-06-05T15:36:26.312Z,31.42
2018-06-05T15:38:55.055Z,30.61
2018-06-05T15:41:23.826Z,30.81
2018-06-05T15:43:52.550Z,30.65
2018-06-05T15:46:21.235Z,30.00
2018-06-05T15:48:49.962Z,29.65
2018-06-05T15:51:18.635Z,29.37
2018-06-05T15:53:47.454Z,28.99
2018-06-05T15:56:16.199Z,28.63
2018-06-05T15:58:44.947Z,27.92
2018-06-05T16:01:13.679Z,27.10
2018-06-05T16:03:42.389Z,26.50
2018-06-05T16:06:11.132Z,25.83
2018-06-05T16:08:40.185Z,25.34
2018-06-05T16:11:08.919Z,25.28
2018-06-05T16:13:37.647Z,25.16
2018-06-05T16:16:06.421Z,24.93
2018-06-05T16:18:35.196Z,25.31
2018-06-05T16:21:04.934Z,26.27
2018-06-05T16:23:33.641Z,26.91
2018-06-05T16:26:02.471Z,27.29
2018-06-05T16:28:31.167Z,27.55
2018-06-05T16:30:59.899Z,27.99
2018-06-05T16:33:28.720Z,28.87
2018-06-05T16:35:57.429Z,29.24
2018-06-05T16:38:26.192Z,28.97
2018-06-05T16:40:55.927Z,29.32
2018-06-05T16:43:24.686Z,29.51
2018-06-05T16:45:53.467Z,30.01
2018-06-05T16:48:22.005Z,29.90
2018-06-05T16:50:50.781Z,30.38
2018-06-05T16:53:19.552Z,30.56
2018-06-05T16:55:48.385Z,30.53
2018-06-05T16:58:17.267Z,30.64
2018-06-05T17:00:46.070Z,30.87
2018-06-05T17:03:14.939Z,30.79
2018-06-05T17:05:43.654Z,30.41
2018-06-05T17:08:12.175Z,29.61
2018-06-05T17:10:40.947Z,28.99
2018-06-05T17:13:09.759Z,28.61
2018-06-05T17:15:38.524Z,28.12
2018-06-05T17:18:07.254Z,28.00
2018-06-05T17:20:36.006Z,27.71
2018-06-05T17:23:05.904Z,27.72
2018-06-05T17:25:34.653Z,27.53
2018-06-05T17:28:03.374Z,27.38
2018-06-05T17:30:32.996Z,27.27
2018-06-05T17:33:01.736Z,27.14
2018-06-05T17:35:30.474Z,27.05
2018-06-05T17:37:59.198Z,26.92
2018-06-05T17:40:28.016Z,26.90
2018-06-05T17:42:56.718Z,26.81
2018-06-05T17:45:25.469Z,26.75
2018-06-05T17:47:54.195Z,26.71
2018-06-05T17:50:22.905Z,26.73
2018-06-05T17:52:51.625Z,26.57
2018-06-05T17:55:20.334Z,26.25
2018-06-05T17:57:49.120Z,26.04
2018-06-05T18:00:17.847Z,25.86
2018-06-05T18:02:46.539Z,25.72
2018-06-05T18:05:15.268Z,25.68
2018-06-05T18:07:43.991Z,25.68
2018-06-05T18:10:12.713Z,25.65
2018-06-05T18:12:41.408Z,25.70
2018-06-05T18:15:10.159Z,25.60
2018-06-05T18:17:38.853Z,25.56
2018-06-05T18:20:07.571Z,25.40
2018-06-05T18:22:36.336Z,25.41
2018-06-05T18:25:06.306Z,25.33
2018-06-05T18:27:35.066Z,25.30
2018-06-05T18:30:05.041Z,25.14
2018-06-05T18:32:33.768Z,25.04
2018-06-05T18:35:02.526Z,24.93
2018-06-05T18:37:31.303Z,24.84
2018-06-05T18:40:00.029Z,24.76
2018-06-05T18:42:28.824Z,24.75
2018-06-05T18:44:57.728Z,24.71
2018-06-05T18:47:26.478Z,24.52
2018-06-05T18:49:58.439Z,24.36
2018-06-05T18:52:27.221Z,24.45
2018-06-05T18:54:56.047Z,24.30
2018-06-05T18:57:24.849Z,24.31
2018-06-05T18:59:53.686Z,24.35
2018-06-05T19:02:22.461Z,24.31
2018-06-05T19:04:51.243Z,24.20
2018-06-05T19:07:19.954Z,24.07
2018-06-05T19:09:48.944Z,23.97
2018-06-05T19:12:17.760Z,23.82
2018-06-05T19:14:46.433Z,23.70
2018-06-05T19:17:15.243Z,23.63
2018-06-05T19:19:44.731Z,23.64
2018-06-05T19:22:13.451Z,23.69
2018-06-05T19:24:42.508Z,23.59
2018-06-05T19:27:11.337Z,23.48
2018-06-05T19:29:40.156Z,23.43
2018-06-05T19:32:08.921Z,23.39
2018-06-05T19:34:37.688Z,23.55
2018-06-05T19:37:06.451Z,23.43
2018-06-05T19:39:35.198Z,23.38
2018-06-05T19:42:04.056Z,23.39
2018-06-05T19:44:32.603Z,23.37
2018-06-05T19:47:01.423Z,23.28
2018-06-05T19:49:29.943Z,23.21
2018-06-05T19:51:58.710Z,23.11
2018-06-05T19:54:27.511Z,23.09
2018-06-05T19:56:56.279Z,23.04
2018-06-05T19:59:25.046Z,23.04
2018-06-05T20:01:53.766Z,22.98
2018-06-05T20:04:23.524Z,23.10
2018-06-05T20:06:52.315Z,22.89
2018-06-05T20:09:21.051Z,22.73
2018-06-05T20:11:49.826Z,22.56
2018-06-05T20:14:18.596Z,22.54
2018-06-05T20:16:47.086Z,22.32
2018-06-05T20:19:15.630Z,22.39
2018-06-05T20:21:44.377Z,22.35
2018-06-05T20:24:13.699Z,22.27
2018-06-05T20:26:42.541Z,22.16
2018-06-05T20:29:11.946Z,22.13
2018-06-05T20:31:40.706Z,22.16
2018-06-05T20:34:09.481Z,22.23
2018-06-05T20:36:38.328Z,22.53
2018-06-05T20:39:09.876Z,22.51
2018-06-05T20:41:39.699Z,22.45
2018-06-05T20:44:09.077Z,22.48
2018-06-05T20:46:38.226Z,22.15
2018-06-05T20:49:07.080Z,21.94
2018-06-05T20:51:35.918Z,21.73
2018-06-05T20:54:04.715Z,21.59
2018-06-05T20:56:33.469Z,21.49
2018-06-05T20:59:02.211Z,21.45
2018-06-05T21:01:31.003Z,21.31
2018-06-05T21:03:59.754Z,21.20
2018-06-05T21:06:28.541Z,21.35
2018-06-05T21:08:57.276Z,21.50
2018-06-05T21:11:26.018Z,21.43
2018-06-05T21:13:54.727Z,21.19
2018-06-05T21:16:23.459Z,21.37
2018-06-05T21:18:52.165Z,21.39
2018-06-05T21:21:20.899Z,21.39
2018-06-05T21:23:49.593Z,21.23
2018-06-05T21:26:18.323Z,20.99
2018-06-05T21:28:47.066Z,20.73
2018-06-05T21:31:17.389Z,20.58
2018-06-05T21:33:46.100Z,20.53
2018-06-05T21:36:14.790Z,20.45
2018-06-05T21:38:43.498Z,20.36
2018-06-05T21:41:12.084Z,20.25
2018-06-05T21:43:40.892Z,20.30
2018-06-05T21:46:09.614Z,20.28
2018-06-05T21:48:38.386Z,20.25
2018-06-05T21:51:07.208Z,20.18
2018-06-05T21:53:36.886Z,20.11
2018-06-05T21:56:05.911Z,20.03
2018-06-05T21:58:34.593Z,19.96
2018-06-05T22:01:03.666Z,19.01
2018-06-05T22:03:32.406Z,20.21
2018-06-05T22:06:01.074Z,20.47
2018-06-05T22:08:29.754Z,20.19
2018-06-05T22:10:59.204Z,20.01
2018-06-05T22:13:27.881Z,19.89
2018-06-05T22:15:56.618Z,19.74
2018-06-05T22:18:25.751Z,19.69
2018-06-05T22:20:54.441Z,19.66
2018-06-05T22:23:23.119Z,19.86
2018-06-05T22:25:51.818Z,19.76
2018-06-05T22:28:20.305Z,19.63
2018-06-05T22:30:49.039Z,19.88
2018-06-05T22:33:20.958Z,19.72
2018-06-05T22:35:49.647Z,19.67
2018-06-05T22:38:18.434Z,20.11
2018-06-05T22:40:47.092Z,20.10
2018-06-05T22:43:15.776Z,19.95
2018-06-05T22:45:44.481Z,19.77
2018-06-05T22:48:13.013Z,19.96
2018-06-05T22:50:41.681Z,20.02
2018-06-05T22:53:10.407Z,19.76
2018-06-05T22:55:39.071Z,19.75
2018-06-05T22:58:07.779Z,20.00
2018-06-05T23:00:36.451Z,19.93
2018-06-05T23:03:05.174Z,19.79
2018-06-05T23:05:33.654Z,19.74
2018-06-05T23:08:02.341Z,19.71
2018-06-05T23:10:31.034Z,19.56
2018-06-05T23:12:59.741Z,19.36
2018-06-05T23:15:28.414Z,19.14
2018-06-05T23:17:57.073Z,18.97
2018-06-05T23:20:25.821Z,18.89
2018-06-05T23:22:54.506Z,18.78
2018-06-05T23:25:23.193Z,18.70
2018-06-05T23:27:51.894Z,18.73
2018-06-05T23:30:20.598Z,18.67
2018-06-05T23:32:51.821Z,18.74
2018-06-05T23:35:20.595Z,18.73
2018-06-05T23:37:49.273Z,18.66
2018-06-05T23:40:17.938Z,18.66
2018-06-05T23:42:46.609Z,18.45
2018-06-05T23:45:15.394Z,18.66
2018-06-05T23:47:44.066Z,18.43
2018-06-05T23:50:12.751Z,18.25
2018-06-05T23:52:41.239Z,18.23
2018-06-05T23:55:09.946Z,18.37
2018-06-05T23:57:38.634Z,18.79
